Time;durP1;ratioP1;P1;durP2;ratioP2;P2;SDS_P1;SDS_P2;PMS_P1;PMS_P2;Temp;Humidity;BMP_temperature;BMP_pressure;BME280_temperature;BME280_humidity;BME280_pressure;Samples;Min_cycle;Max_cycle;Signal;HPM_P1;HPM_P2
2021/12/05 00:17:36;;;;;;;3.25;0.90;;;6.10;99.90;;;;;;5073962;28;20402;-85
2021/12/05 00:23:09;;;;;;;2.35;0.60;;;6.10;99.90;;;;;;5091139;27;20953;-85
2021/12/05 00:25:37;;;;;;;5.82;0.98;;;6.10;99.90;;;;;;5091177;28;20072;-86
2021/12/05 00:28:29;;;;;;;4.68;1.58;;;6.00;99.90;;;;;;5091550;28;20402;-86
2021/12/05 00:31:17;;;;;;;2.90;0.70;;;6.00;99.90;;;;;;5091240;28;20048;-85
2021/12/05 00:55:50;;;;;;;3.90;0.80;;;5.90;99.90;;;;;;5064947;28;20048;-86
2021/12/05 01:01:25;;;;;;;2.83;0.60;;;6.00;99.90;;;;;;5090650;28;20098;-86
2021/12/05 01:04:26;;;;;;;0.77;0.40;;;6.00;99.90;;;;;;5090322;28;20048;-86
2021/12/05 01:07:14;;;;;;;4.85;0.70;;;6.00;99.90;;;;;;5090884;28;20430;-87
2021/12/05 01:09:47;;;;;;;1.60;0.47;;;6.00;99.90;;;;;;5090417;28;20036;-86
2021/12/05 01:12:34;;;;;;;0.60;0.28;;;6.00;99.90;;;;;;5090734;28;20378;-86
2021/12/05 01:15:05;;;;;;;0.75;0.43;;;6.00;99.90;;;;;;5090698;28;20108;-86
2021/12/05 01:17:40;;;;;;;2.25;0.90;;;6.10;99.90;;;;;;5073929;28;20053;-86
2021/12/05 01:20:12;;;;;;;2.83;0.45;;;6.10;99.90;;;;;;5071223;28;20052;-86
2021/12/05 01:22:44;;;;;;;4.25;0.82;;;6.10;99.90;;;;;;5071532;28;20061;-86
2021/12/05 01:25:22;;;;;;;2.03;0.70;;;6.20;99.90;;;;;;5071413;28;20067;-86
2021/12/05 01:27:58;;;;;;;3.13;1.35;;;6.20;99.90;;;;;;5069797;28;20041;-85
2021/12/05 01:30:34;;;;;;;0.55;0.30;;;6.20;99.90;;;;;;5070031;28;20128;-86
2021/12/05 01:33:07;;;;;;;3.40;0.70;;;6.20;99.90;;;;;;5063821;28;20403;-85
2021/12/05 01:35:50;;;;;;;0.98;0.50;;;6.20;99.90;;;;;;5056254;28;20491;-85
2021/12/05 01:38:28;;;;;;;3.05;0.75;;;6.10;99.90;;;;;;5056716;28;20434;-86
2021/12/05 01:41:07;;;;;;;2.83;0.50;;;6.10;99.90;;;;;;5056277;28;20060;-86
2021/12/05 01:52:28;;;;;;;1.48;0.60;;;6.10;99.90;;;;;;5053619;28;20056;-86
2021/12/05 01:55:21;;;;;;;1.13;0.40;;;6.10;99.90;;;;;;5056371;28;20055;-85
2021/12/05 02:31:42;;;;;;;2.40;0.77;;;5.90;99.90;;;;;;5075523;28;20063;-86
2021/12/05 02:37:30;;;;;;;1.10;0.35;;;5.80;99.90;;;;;;5075734;28;20049;-86
2021/12/05 02:40:22;;;;;;;1.33;0.70;;;5.90;99.90;;;;;;5074130;28;20056;-86
2021/12/05 02:42:53;;;;;;;1.45;0.30;;;5.90;99.90;;;;;;5075092;28;20131;-86
2021/12/05 02:45:20;;;;;;;3.55;0.63;;;5.80;99.90;;;;;;5074280;28;20067;-86
2021/12/05 02:47:50;;;;;;;0.68;0.32;;;5.80;99.90;;;;;;5074788;28;20478;-86
2021/12/05 02:50:20;;;;;;;1.08;0.45;;;5.80;99.90;;;;;;5075107;28;20107;-86
2021/12/05 02:52:49;;;;;;;5.30;0.50;;;5.90;99.90;;;;;;5074968;28;20078;-86
2021/12/05 02:55:25;;;;;;;5.55;0.40;;;5.90;99.90;;;;;;5074773;28;20049;-86
2021/12/05 02:57:56;;;;;;;1.25;0.35;;;5.90;99.90;;;;;;5074915;28;20104;-87
2021/12/05 03:00:35;;;;;;;4.18;0.50;;;5.80;99.90;;;;;;5074542;28;20061;-87
2021/12/05 03:03:02;;;;;;;2.22;0.45;;;5.90;99.90;;;;;;5074388;28;20131;-86
2021/12/05 03:05:30;;;;;;;1.67;0.43;;;5.80;99.90;;;;;;5074445;28;20044;-86
2021/12/05 03:08:01;;;;;;;2.33;0.50;;;5.80;99.90;;;;;;5074304;28;20040;-86
2021/12/05 03:10:30;;;;;;;3.88;0.93;;;5.80;99.90;;;;;;5074342;28;20049;-86
2021/12/05 03:12:57;;;;;;;2.03;0.63;;;5.80;99.90;;;;;;5074124;28;20066;-86
2021/12/05 03:15:24;;;;;;;2.75;0.45;;;5.70;99.90;;;;;;5074240;28;20101;-86
2021/12/05 03:17:51;;;;;;;1.95;0.52;;;5.70;99.90;;;;;;5074802;28;20049;-86
2021/12/05 03:20:21;;;;;;;1.23;0.60;;;5.90;99.90;;;;;;5071835;28;20041;-86
2021/12/05 03:22:49;;;;;;;2.00;0.50;;;5.70;99.90;;;;;;5054067;28;20057;-86
2021/12/05 03:25:18;;;;;;;1.60;0.68;;;5.70;99.90;;;;;;5055235;28;20457;-86
2021/12/05 03:27:45;;;;;;;1.13;0.43;;;5.70;99.90;;;;;;5056935;28;20049;-86
2021/12/05 03:30:13;;;;;;;4.32;0.85;;;5.70;99.90;;;;;;5056757;28;20045;-86
2021/12/05 03:32:41;;;;;;;4.03;0.70;;;5.60;99.90;;;;;;5057016;28;20049;-87
2021/12/05 03:35:09;;;;;;;2.53;0.50;;;5.70;99.90;;;;;;5054887;28;20048;-87
2021/12/05 03:37:37;;;;;;;3.72;0.95;;;5.60;99.90;;;;;;5054052;28;20041;-86
2021/12/05 03:40:06;;;;;;;2.88;0.90;;;5.70;99.90;;;;;;5054344;28;20098;-86
2021/12/05 03:42:35;;;;;;;2.15;0.63;;;5.60;99.90;;;;;;5054215;28;20079;-87
2021/12/05 03:45:05;;;;;;;1.83;1.02;;;5.50;99.90;;;;;;5053997;28;20045;-87
2021/12/05 03:47:32;;;;;;;1.73;0.60;;;5.50;99.90;;;;;;5054306;28;20049;-86
2021/12/05 03:49:59;;;;;;;1.58;0.70;;;5.50;99.90;;;;;;5053860;28;20053;-87
2021/12/05 03:52:26;;;;;;;1.40;0.60;;;5.50;99.90;;;;;;5053899;28;20098;-86
2021/12/05 03:54:53;;;;;;;3.22;1.05;;;5.60;99.90;;;;;;5053858;28;20381;-88
2021/12/05 03:57:20;;;;;;;1.27;0.52;;;5.60;99.90;;;;;;5053859;28;20068;-87
2021/12/05 03:59:49;;;;;;;1.25;0.55;;;5.60;99.90;;;;;;5054117;28;20091;-86
2021/12/05 04:02:16;;;;;;;3.03;0.50;;;5.60;99.90;;;;;;5054292;28;20045;-87
2021/12/05 04:04:43;;;;;;;4.40;1.35;;;5.50;99.90;;;;;;5069130;28;20093;-86
2021/12/05 04:07:13;;;;;;;2.17;0.75;;;5.50;99.90;;;;;;5073685;28;20080;-86
2021/12/05 04:09:39;;;;;;;;;;;5.50;99.90;;;;;;5074211;28;20049;-87
2021/12/05 04:12:07;;;;;;;3.88;0.85;;;5.50;99.90;;;;;;5073528;28;20358;-87
2021/12/05 04:14:37;;;;;;;3.42;0.98;;;5.60;99.90;;;;;;5073969;28;20044;-86
2021/12/05 04:17:08;;;;;;;2.13;0.55;;;5.50;99.90;;;;;;5074072;28;20173;-86
2021/12/05 04:19:36;;;;;;;1.58;0.80;;;5.60;99.90;;;;;;5073887;28;20052;-87
2021/12/05 04:22:05;;;;;;;5.60;0.90;;;5.60;99.90;;;;;;5073517;28;20044;-86
2021/12/05 04:24:32;;;;;;;3.53;0.93;;;5.60;99.90;;;;;;5073436;28;20044;-86
2021/12/05 04:26:59;;;;;;;2.50;0.80;;;5.60;99.90;;;;;;5073764;28;20052;-86
2021/12/05 04:29:26;;;;;;;2.50;1.15;;;5.60;99.90;;;;;;5073593;28;20121;-86
2021/12/05 04:31:53;;;;;;;1.60;0.77;;;5.70;99.90;;;;;;5073454;28;20059;-86
2021/12/05 04:34:22;;;;;;;3.47;0.75;;;5.60;99.90;;;;;;5073775;28;20406;-86
2021/12/05 04:36:55;;;;;;;2.70;1.00;;;5.60;99.90;;;;;;5073660;28;20041;-86
2021/12/05 04:39:23;;;;;;;3.45;0.80;;;5.80;99.90;;;;;;5067348;28;20048;-87
2021/12/05 04:41:51;;;;;;;2.40;0.80;;;5.70;99.90;;;;;;5073086;28;20048;-86
2021/12/05 04:44:19;;;;;;;4.97;0.70;;;5.70;99.90;;;;;;5073353;28;20049;-86
2021/12/05 04:46:47;;;;;;;4.18;1.20;;;5.80;99.90;;;;;;5073387;28;20041;-86
2021/12/05 04:49:14;;;;;;;3.47;1.15;;;5.70;99.90;;;;;;5073558;28;20118;-86
2021/12/05 04:51:46;;;;;;;1.77;0.88;;;5.70;99.90;;;;;;5073362;28;20418;-87
2021/12/05 04:54:15;;;;;;;1.65;1.00;;;5.80;99.90;;;;;;5073472;28;20094;-87
2021/12/05 04:56:44;;;;;;;2.35;0.82;;;5.80;99.90;;;;;;5073345;28;20044;-86
2021/12/05 04:59:14;;;;;;;5.13;1.10;;;5.80;99.90;;;;;;5073205;28;20491;-87
2021/12/05 05:01:42;;;;;;;3.25;1.15;;;5.70;99.90;;;;;;5073775;28;20040;-87
2021/12/05 05:04:18;;;;;;;3.17;1.13;;;5.70;99.90;;;;;;5073455;28;20088;-86
2021/12/05 05:06:47;;;;;;;4.47;0.98;;;5.60;99.90;;;;;;5073473;28;20059;-86
2021/12/05 05:09:14;;;;;;;4.57;1.77;;;5.60;99.90;;;;;;5075774;28;20063;-86
2021/12/05 05:11:42;;;;;;;3.05;0.80;;;5.60;99.90;;;;;;5077157;28;20048;-86
2021/12/05 05:14:11;;;;;;;7.15;1.27;;;5.60;99.90;;;;;;5077065;28;20048;-86
2021/12/05 05:16:38;;;;;;;4.50;1.33;;;5.70;99.90;;;;;;5076998;28;20072;-87
2021/12/05 05:19:05;;;;;;;3.40;1.00;;;5.60;99.90;;;;;;5076813;28;20048;-86
2021/12/05 05:21:39;;;;;;;3.95;1.38;;;5.70;99.90;;;;;;5076345;28;20078;-86
2021/12/05 05:24:44;;;;;;;3.55;0.90;;;5.70;99.90;;;;;;5059602;28;20487;-87
2021/12/05 05:27:35;;;;;;;4.28;0.88;;;5.70;99.90;;;;;;5056494;28;20045;-88
2021/12/05 05:46:56;;;;;;;3.58;1.10;;;5.60;99.90;;;;;;5046305;28;20085;-86
2021/12/05 05:49:32;;;;;;;3.78;1.13;;;5.60;99.90;;;;;;5074781;28;20063;-87
2021/12/05 05:51:59;;;;;;;4.25;1.15;;;5.50;99.90;;;;;;5076051;28;20048;-86
2021/12/05 05:54:27;;;;;;;7.05;1.67;;;5.50;99.90;;;;;;5076330;28;20076;-86
2021/12/05 05:57:00;;;;;;;4.80;0.93;;;5.60;99.90;;;;;;5076429;28;20102;-85
2021/12/05 05:59:32;;;;;;;2.90;1.15;;;5.60;99.90;;;;;;5076186;28;20084;-86
2021/12/05 06:04:44;;;;;;;5.68;1.33;;;5.60;99.90;;;;;;5076027;28;20468;-87
2021/12/05 06:07:12;;;;;;;2.03;0.93;;;5.50;99.90;;;;;;5075727;28;20551;-87
2021/12/05 06:09:39;;;;;;;5.32;1.63;;;5.70;99.90;;;;;;5075882;28;20084;-87
2021/12/05 06:12:08;;;;;;;6.35;1.20;;;5.70;99.90;;;;;;5076178;28;20410;-86
2021/12/05 06:14:35;;;;;;;6.43;1.15;;;5.60;99.90;;;;;;5076059;28;20379;-87
2021/12/05 06:17:02;;;;;;;4.60;1.08;;;5.50;99.90;;;;;;5075801;28;20486;-86
2021/12/05 06:19:29;;;;;;;6.43;1.52;;;5.70;99.90;;;;;;5075406;28;20041;-87
2021/12/05 06:21:56;;;;;;;8.57;1.08;;;5.60;99.90;;;;;;5075507;28;20048;-87
2021/12/05 06:24:25;;;;;;;5.47;1.30;;;5.60;99.90;;;;;;5075450;28;20395;-86
2021/12/05 06:26:52;;;;;;;4.22;1.77;;;6.00;99.90;;;;;;5076009;28;20104;-86
2021/12/05 06:29:22;;;;;;;5.35;1.17;;;5.60;99.90;;;;;;5075740;28;20122;-86
2021/12/05 06:37:45;;;;;;;8.23;1.85;;;5.50;99.90;;;;;;5173742;27;20053;-86
2021/12/05 06:40:33;;;;;;;6.20;1.73;;;5.50;99.90;;;;;;5173743;27;20047;-86
2021/12/05 06:43:04;;;;;;;7.60;1.63;;;5.50;99.90;;;;;;5174164;27;20042;-86
2021/12/05 06:48:15;;;;;;;6.65;1.60;;;5.50;99.90;;;;;;5173285;27;20056;-86
2021/12/05 06:50:44;;;;;;;6.40;1.65;;;5.50;99.90;;;;;;5173330;27;20042;-86
2021/12/05 06:53:11;;;;;;;8.20;1.70;;;5.50;99.90;;;;;;5173521;27;20043;-86
2021/12/05 06:55:38;;;;;;;6.22;1.48;;;5.60;99.90;;;;;;5173418;27;20039;-87
2021/12/05 06:58:05;;;;;;;6.22;1.83;;;5.60;99.90;;;;;;5173408;27;20099;-85
2021/12/05 07:00:32;;;;;;;3.25;1.00;;;5.80;99.90;;;;;;5173315;27;20134;-86
2021/12/05 07:03:00;;;;;;;7.93;1.40;;;5.70;99.90;;;;;;5172995;27;20046;-85
2021/12/05 07:05:45;;;;;;;8.57;2.05;;;5.80;99.90;;;;;;5173375;27;20039;-86
2021/12/05 07:08:16;;;;;;;6.88;1.42;;;5.80;99.90;;;;;;5169103;27;20051;-86
2021/12/05 07:10:49;;;;;;;9.35;2.03;;;5.70;99.90;;;;;;5173187;27;20046;-86
2021/12/05 07:16:06;;;;;;;5.85;1.33;;;5.90;99.90;;;;;;5172875;27;20121;-85
2021/12/05 07:18:41;;;;;;;9.15;1.08;;;6.20;99.90;;;;;;5173170;27;20441;-86
2021/12/05 07:21:26;;;;;;;6.47;1.58;;;5.90;99.90;;;;;;5173211;27;20045;-86
2021/12/05 07:24:04;;;;;;;6.63;1.33;;;5.80;99.90;;;;;;5172811;27;20052;-86
2021/12/05 07:26:47;;;;;;;9.50;1.65;;;5.80;99.90;;;;;;5172981;27;20042;-86
2021/12/05 07:40:30;;;;;;;7.22;1.30;;;5.70;99.90;;;;;;5067693;28;20471;-86
2021/12/05 07:43:01;;;;;;;7.60;1.13;;;5.80;99.90;;;;;;5115630;27;20058;-86
2021/12/05 07:45:34;;;;;;;7.88;1.10;;;5.90;99.90;;;;;;5144054;27;20038;-85
2021/12/05 07:48:09;;;;;;;7.05;1.50;;;5.60;99.90;;;;;;5147566;27;20548;-86
2021/12/05 07:50:44;;;;;;;5.88;1.42;;;5.70;99.90;;;;;;5161409;27;20061;-86
2021/12/05 07:53:19;;;;;;;11.60;3.42;;;5.60;99.90;;;;;;5158981;27;20525;-85
2021/12/05 07:55:52;;;;;;;8.70;1.60;;;5.70;99.90;;;;;;5157966;27;20078;-87
2021/12/05 07:58:48;;;;;;;9.63;1.75;;;5.70;99.90;;;;;;5157777;27;20112;-87
2021/12/05 08:14:21;;;;;;;8.55;1.60;;;5.70;99.90;;;;;;5157990;27;20091;-86
2021/12/05 08:15:15;;;;;;;3.13;1.33;;;5.60;99.90;;;;;;5157929;27;20054;-85
2021/12/05 08:17:50;;;;;;;7.00;0.73;;;5.60;99.90;;;;;;5158047;27;20043;-86
2021/12/05 08:20:17;;;;;;;8.23;0.88;;;5.70;99.90;;;;;;5157870;27;20049;-87
2021/12/05 08:22:44;;;;;;;11.18;2.90;;;5.70;99.90;;;;;;5157500;27;20095;-88
2021/12/05 08:25:13;;;;;;;9.57;1.38;;;5.70;99.90;;;;;;5137206;27;20040;-87
2021/12/05 08:27:47;;;;;;;12.82;1.73;;;5.70;99.90;;;;;;5137223;27;20142;-87
2021/12/05 08:30:23;;;;;;;7.15;1.35;;;5.70;99.90;;;;;;5137152;27;20039;-87
2021/12/05 08:33:09;;;;;;;5.22;1.35;;;5.70;99.90;;;;;;5136755;27;20116;-86
2021/12/05 08:36:01;;;;;;;8.80;1.45;;;5.70;99.90;;;;;;5136683;27;20103;-87
2021/12/05 09:31:06;;;;;;;10.45;1.58;;;5.60;99.90;;;;;;5125380;27;20047;-86
2021/12/05 10:07:21;;;;;;;5.00;1.80;;;5.80;99.90;;;;;;5122577;27;20087;-86
2021/12/05 10:10:04;;;;;;;6.95;1.50;;;5.80;99.90;;;;;;5155801;27;20054;-88
2021/12/05 10:12:51;;;;;;;5.60;1.45;;;5.90;99.90;;;;;;5155687;27;20046;-87
2021/12/05 10:18:31;;;;;;;9.73;2.13;;;5.90;99.90;;;;;;5154626;27;20049;-86
2021/12/05 10:35:27;;;;;;;10.18;1.92;;;5.90;99.90;;;;;;5157534;27;20054;-86
2021/12/05 10:38:01;;;;;;;8.07;1.73;;;5.90;99.90;;;;;;5155694;27;20142;-86
2021/12/05 10:40:36;;;;;;;10.75;3.42;;;5.90;99.90;;;;;;5155803;27;20043;-86
2021/12/05 10:43:12;;;;;;;6.43;1.38;;;5.90;99.90;;;;;;5155647;27;20408;-87
2021/12/05 10:45:41;;;;;;;5.88;1.73;;;6.00;99.90;;;;;;5155491;27;20091;-87
2021/12/05 10:48:12;;;;;;;6.15;1.50;;;6.00;99.90;;;;;;5155166;27;20492;-86
2021/12/05 10:50:42;;;;;;;7.70;2.50;;;6.10;99.90;;;;;;5155648;27;20038;-87
2021/12/05 10:53:28;;;;;;;5.53;1.70;;;6.10;99.90;;;;;;5155821;27;20039;-87
2021/12/05 10:56:01;;;;;;;8.40;1.30;;;6.20;99.90;;;;;;5155127;27;20102;-87
2021/12/05 10:58:34;;;;;;;7.07;1.73;;;6.30;99.90;;;;;;5156062;27;20047;-87
2021/12/05 11:01:07;;;;;;;6.93;1.27;;;6.30;99.90;;;;;;5157266;27;20039;-86
2021/12/05 11:03:34;;;;;;;7.47;1.42;;;6.40;99.90;;;;;;5155200;27;20051;-85
2021/12/05 11:06:02;;;;;;;8.43;2.17;;;6.40;99.90;;;;;;5155482;27;20042;-86
2021/12/05 11:08:34;;;;;;;10.77;1.80;;;6.40;99.90;;;;;;5155527;27;20051;-88
2021/12/05 11:11:12;;;;;;;4.30;1.13;;;6.40;99.90;;;;;;5155147;27;20099;-87
2021/12/05 11:13:43;;;;;;;14.15;3.65;;;6.60;99.90;;;;;;5155333;27;20477;-87
2021/12/05 11:16:33;;;;;;;9.02;1.63;;;6.70;99.90;;;;;;5155259;27;20050;-88
2021/12/05 11:19:01;;;;;;;13.80;5.15;;;6.70;99.90;;;;;;5157724;27;20058;-89
2021/12/05 11:21:32;;;;;;;7.63;1.58;;;6.60;99.90;;;;;;5158566;27;20058;-86
2021/12/05 11:24:11;;;;;;;18.08;5.85;;;6.70;99.90;;;;;;5159095;27;20369;-87
2021/12/05 11:26:41;;;;;;;21.42;7.65;;;6.80;99.90;;;;;;5158255;27;20043;-87
2021/12/05 11:29:10;;;;;;;11.07;3.13;;;6.80;99.90;;;;;;5139438;27;20077;-86
2021/12/05 11:31:39;;;;;;;21.63;7.22;;;6.80;99.90;;;;;;5138568;27;20051;-86
2021/12/05 11:34:07;;;;;;;10.38;3.72;;;6.90;99.90;;;;;;5137553;27;20412;-87
2021/12/05 11:36:38;;;;;;;8.00;2.08;;;6.80;99.90;;;;;;5138113;27;20043;-87
2021/12/05 11:39:22;;;;;;;14.00;2.70;;;6.70;99.90;;;;;;5138789;27;20039;-87
2021/12/05 11:41:52;;;;;;;11.55;2.45;;;6.60;99.90;;;;;;5137863;27;20061;-87
2021/12/05 11:44:20;;;;;;;11.63;2.35;;;6.50;99.90;;;;;;5138963;27;20051;-87
2021/12/05 11:46:50;;;;;;;10.35;2.60;;;6.50;99.90;;;;;;5142650;27;20043;-86
2021/12/05 11:49:21;;;;;;;12.50;3.67;;;6.50;99.90;;;;;;5155946;27;20047;-88
2021/12/05 11:51:52;;;;;;;11.88;2.72;;;5.60;99.90;;;;;;5160661;27;20488;-86
2021/12/05 11:54:23;;;;;;;10.27;1.95;;;6.80;99.90;;;;;;5158980;27;20046;-88
2021/12/05 11:56:57;;;;;;;4.80;1.50;;;6.80;99.90;;;;;;5159829;27;20095;-87
2021/12/05 11:59:26;;;;;;;8.38;2.42;;;6.80;99.90;;;;;;5161993;27;20042;-86
2021/12/05 12:01:59;;;;;;;9.63;2.88;;;6.80;99.90;;;;;;5164687;27;20079;-86
2021/12/05 12:04:40;;;;;;;8.93;2.17;;;6.90;99.90;;;;;;5164055;27;20047;-86
2021/12/05 12:07:17;;;;;;;9.00;1.95;;;6.90;99.90;;;;;;5165090;27;20087;-85
2021/12/05 12:09:45;;;;;;;9.55;2.28;;;6.90;99.90;;;;;;5138661;27;20047;-87
2021/12/05 12:12:15;;;;;;;9.00;2.30;;;7.00;99.90;;;;;;5137271;27;20397;-86
2021/12/05 12:14:42;;;;;;;;;;;6.90;99.90;;;;;;5138019;27;20108;-87
2021/12/05 12:17:15;;;;;;;7.43;1.80;;;6.90;99.90;;;;;;5137694;27;19919;-85
2021/12/05 12:19:43;;;;;;;10.10;2.08;;;6.90;99.90;;;;;;5138039;27;20085;-85
2021/12/05 12:22:10;;;;;;;10.52;3.15;;;7.10;99.90;;;;;;5138396;27;20047;-86
2021/12/05 12:24:40;;;;;;;11.95;2.30;;;7.20;99.90;;;;;;5137078;27;20043;-87
2021/12/05 12:27:07;;;;;;;10.18;1.88;;;7.20;99.90;;;;;;5136947;27;20047;-87
2021/12/05 12:29:37;;;;;;;10.82;2.78;;;7.10;99.90;;;;;;5137092;27;20400;-85
2021/12/05 12:32:10;;;;;;;;;;;7.00;99.90;;;;;;5136543;27;20043;-87
2021/12/05 12:34:38;;;;;;;9.15;1.67;;;7.00;99.90;;;;;;5138180;27;20341;-86
2021/12/05 12:37:06;;;;;;;6.30;1.17;;;6.90;99.90;;;;;;5137344;27;20055;-87
2021/12/05 12:39:37;;;;;;;11.05;1.98;;;6.90;99.90;;;;;;5137123;27;20046;-87
2021/12/05 12:42:15;;;;;;;9.20;2.28;;;6.60;99.90;;;;;;5136905;27;20070;-86
2021/12/05 12:45:09;;;;;;;11.57;1.90;;;7.10;99.90;;;;;;5136388;27;20047;-85
2021/12/05 12:47:39;;;;;;;11.05;1.85;;;7.00;99.90;;;;;;5139358;27;20585;-86
2021/12/05 12:50:37;;;;;;;9.43;2.13;;;7.00;99.90;;;;;;5157002;27;20069;-86
2021/12/05 12:53:11;;;;;;;5.93;1.98;;;7.00;99.90;;;;;;5072622;28;20049;-87
2021/12/05 12:55:41;;;;;;;8.98;1.77;;;7.10;99.90;;;;;;5145757;27;20072;-86
2021/12/05 12:58:11;;;;;;;6.47;1.65;;;7.10;99.90;;;;;;5153685;27;20038;-86
2021/12/05 13:00:43;;;;;;;10.77;1.60;;;7.20;99.90;;;;;;5154087;27;20130;-86
2021/12/05 13:03:50;;;;;;;9.52;1.90;;;7.20;99.90;;;;;;5156176;27;20082;-87
2021/12/05 13:11:51;;;;;;;11.82;2.70;;;7.20;99.90;;;;;;5158014;27;20611;-87
2021/12/05 13:14:20;;;;;;;6.43;1.65;;;7.30;99.90;;;;;;5159543;27;20091;-85
2021/12/05 13:16:49;;;;;;;6.63;1.80;;;7.40;99.90;;;;;;5157075;27;20103;-88
2021/12/05 13:19:22;;;;;;;14.38;1.98;;;7.40;99.90;;;;;;5156300;27;20562;-86
2021/12/05 13:21:52;;;;;;;7.05;1.92;;;7.50;99.90;;;;;;5159694;27;20506;-86
2021/12/05 13:24:26;;;;;;;9.02;2.30;;;7.40;99.90;;;;;;5147912;27;20042;-88
2021/12/05 13:27:00;;;;;;;12.02;3.25;;;7.50;99.90;;;;;;5154433;27;20099;-87
2021/12/05 13:29:29;;;;;;;10.00;2.05;;;7.30;99.90;;;;;;5155463;27;20514;-88
2021/12/05 13:32:05;;;;;;;;;;;7.20;99.90;;;;;;5158268;27;20252;-88
2021/12/05 13:34:48;;;;;;;15.25;2.65;;;7.10;99.90;;;;;;5155838;27;19923;-87
2021/12/05 13:37:28;;;;;;;10.05;1.95;;;7.10;99.90;;;;;;5157729;27;20107;-87
2021/12/05 13:40:04;;;;;;;13.57;2.67;;;7.10;99.90;;;;;;5156572;27;20047;-88
2021/12/05 13:42:42;;;;;;;17.65;1.92;;;7.00;99.90;;;;;;5156303;27;20057;-88
2021/12/05 13:45:14;;;;;;;14.13;3.90;;;6.90;99.90;;;;;;5156524;27;20480;-88
2021/12/05 13:47:46;;;;;;;14.15;2.70;;;6.90;99.90;;;;;;5157489;27;20042;-87
2021/12/05 13:50:34;;;;;;;17.65;2.75;;;6.90;99.90;;;;;;5156263;27;20047;-87
2021/12/05 13:53:18;;;;;;;13.52;2.63;;;7.00;99.90;;;;;;5156557;27;20053;-88
2021/12/05 13:55:49;;;;;;;14.02;3.47;;;7.10;99.90;;;;;;5157174;27;20047;-87
2021/12/05 13:58:19;;;;;;;7.75;2.40;;;7.10;99.90;;;;;;5158070;27;20039;-87
2021/12/05 14:00:51;;;;;;;8.13;2.05;;;7.10;99.90;;;;;;5157705;27;20042;-89
2021/12/05 14:03:52;;;;;;;12.45;3.03;;;7.00;99.90;;;;;;5157060;27;20042;-87
2021/12/05 14:06:40;;;;;;;15.80;3.67;;;7.10;99.90;;;;;;5159669;27;20438;-88
2021/12/05 14:09:12;;;;;;;13.38;2.95;;;7.10;99.90;;;;;;5162219;27;20047;-86
2021/12/05 14:11:45;;;;;;;8.98;1.98;;;7.10;99.90;;;;;;5163332;27;20055;-87
2021/12/05 14:14:12;;;;;;;14.02;3.03;;;7.10;99.90;;;;;;5156855;27;20047;-87
2021/12/05 14:16:42;;;;;;;6.03;1.90;;;7.10;99.90;;;;;;5155625;27;20549;-88
2021/12/05 14:19:14;;;;;;;4.82;1.25;;;7.20;99.90;;;;;;5155258;27;20043;-87
2021/12/05 14:21:42;;;;;;;10.80;2.35;;;7.30;99.90;;;;;;5155591;27;20095;-88
2021/12/05 14:24:10;;;;;;;11.90;2.40;;;7.50;99.90;;;;;;5155856;27;20050;-88
2021/12/05 14:26:40;;;;;;;5.45;2.17;;;7.50;99.90;;;;;;5155735;27;20103;-88
2021/12/05 14:29:11;;;;;;;8.18;1.85;;;7.40;99.90;;;;;;5155260;27;20064;-87
2021/12/05 14:31:40;;;;;;;5.80;1.10;;;7.50;99.90;;;;;;5155335;27;20066;-87
2021/12/05 14:34:10;;;;;;;4.85;1.42;;;7.50;99.90;;;;;;5154907;27;20505;-88
2021/12/05 14:36:41;;;;;;;8.57;1.20;;;7.50;99.90;;;;;;5156505;27;20055;-88
2021/12/05 14:39:19;;;;;;;5.90;1.77;;;7.50;99.90;;;;;;5137062;27;20092;-87
2021/12/05 14:41:49;;;;;;;11.60;1.92;;;7.40;99.90;;;;;;5155844;27;20083;-86
2021/12/05 14:44:18;;;;;;;14.98;3.45;;;7.30;99.90;;;;;;5155144;27;20043;-87
2021/12/05 14:46:47;;;;;;;6.40;1.87;;;7.10;99.90;;;;;;5155399;27;20043;-87
2021/12/05 14:49:16;;;;;;;12.15;2.50;;;7.00;99.90;;;;;;5155169;27;20054;-87
2021/12/05 14:51:45;;;;;;;12.48;2.35;;;6.90;99.90;;;;;;5155699;27;20070;-87
2021/12/05 14:54:24;;;;;;;9.88;2.22;;;6.80;99.90;;;;;;5155083;27;20082;-86
2021/12/05 14:56:51;;;;;;;10.07;2.45;;;6.80;99.90;;;;;;5159009;27;20114;-86
2021/12/05 14:59:19;;;;;;;12.23;3.10;;;6.70;99.90;;;;;;5159924;27;20461;-87
2021/12/05 15:01:50;;;;;;;13.05;3.53;;;6.70;99.90;;;;;;5158898;27;20493;-87
2021/12/05 15:04:23;;;;;;;12.88;4.18;;;6.70;99.90;;;;;;5159494;27;20416;-87
2021/12/05 15:06:50;;;;;;;9.85;3.92;;;6.70;99.90;;;;;;5159209;27;20133;-87
2021/12/05 15:09:23;;;;;;;14.23;4.53;;;6.60;99.90;;;;;;5140078;27;20051;-87
2021/12/05 15:11:53;;;;;;;20.20;4.88;;;6.60;99.90;;;;;;5158903;27;20042;-88
2021/12/05 15:14:20;;;;;;;13.13;4.13;;;6.60;99.90;;;;;;5159509;27;20107;-87
2021/12/05 15:16:59;;;;;;;9.05;2.80;;;6.60;99.90;;;;;;5158687;27;20055;-87
2021/12/05 15:19:28;;;;;;;;;;;6.50;99.90;;;;;;5159108;27;20453;-87
2021/12/05 15:21:55;;;;;;;9.65;3.67;;;6.50;99.90;;;;;;5158892;27;20444;-87
2021/12/05 15:24:25;;;;;;;14.23;3.08;;;6.50;99.90;;;;;;5158551;27;20042;-87
2021/12/05 15:26:53;;;;;;;17.33;2.55;;;6.40;99.90;;;;;;5159226;27;20047;-86
2021/12/05 15:29:21;;;;;;;11.40;3.42;;;6.30;99.90;;;;;;5141640;27;20078;-87
2021/12/05 15:31:48;;;;;;;21.35;3.30;;;6.30;99.90;;;;;;5137763;27;20533;-87
2021/12/05 15:34:24;;;;;;;7.78;3.15;;;6.20;99.90;;;;;;5137717;27;20055;-87
2021/12/05 15:36:54;;;;;;;9.13;2.72;;;6.20;99.90;;;;;;5138309;27;20099;-87
2021/12/05 15:39:24;;;;;;;10.25;3.53;;;6.20;99.90;;;;;;5137856;27;20051;-86
2021/12/05 15:41:54;;;;;;;12.07;2.75;;;6.10;99.90;;;;;;5138476;27;20096;-87
2021/12/05 15:44:39;;;;;;;11.23;3.95;;;6.10;99.90;;;;;;5137412;27;20047;-87
2021/12/05 15:47:11;;;;;;;16.80;6.03;;;5.80;99.90;;;;;;5137837;27;20050;-88
2021/12/05 15:49:58;;;;;;;16.05;4.53;;;6.10;99.90;;;;;;5137533;27;20043;-88
2021/12/05 15:52:35;;;;;;;16.65;3.63;;;6.10;99.90;;;;;;5137787;27;20047;-87
2021/12/05 15:55:06;;;;;;;11.63;3.83;;;6.30;99.90;;;;;;5136854;27;20095;-87
2021/12/05 15:57:37;;;;;;;14.23;3.83;;;6.00;99.90;;;;;;5137210;27;20043;-87
2021/12/05 16:00:24;;;;;;;16.45;3.67;;;6.00;99.90;;;;;;5137643;27;20050;-88
2021/12/05 16:02:58;;;;;;;15.05;3.33;;;6.00;99.90;;;;;;5137656;27;20043;-88
2021/12/05 16:05:25;;;;;;;12.70;4.03;;;6.00;99.90;;;;;;5156450;27;20100;-88
2021/12/05 16:08:03;;;;;;;13.98;3.42;;;6.00;99.90;;;;;;5157688;27;20047;-87
2021/12/05 16:10:32;;;;;;;21.23;3.63;;;6.00;99.90;;;;;;5159709;27;20162;-86
2021/12/05 16:13:07;;;;;;;13.32;3.90;;;6.00;99.90;;;;;;5161310;27;20047;-86
2021/12/05 16:15:34;;;;;;;12.68;3.15;;;6.00;99.90;;;;;;5160688;27;20043;-87
2021/12/05 16:18:02;;;;;;;14.93;4.05;;;6.00;99.90;;;;;;5161488;27;20046;-87
2021/12/05 16:20:37;;;;;;;11.30;4.03;;;5.90;99.90;;;;;;5158148;27;20043;-85
2021/12/05 16:23:22;;;;;;;16.98;5.65;;;5.90;99.90;;;;;;5158059;27;20043;-87
2021/12/05 16:26:01;;;;;;;22.30;5.03;;;5.90;99.90;;;;;;5157865;27;20068;-87
2021/12/05 16:28:31;;;;;;;15.60;4.78;;;5.90;99.90;;;;;;5158252;27;20086;-86
2021/12/05 16:31:03;;;;;;;12.95;3.47;;;5.90;99.90;;;;;;5157578;27;20046;-85
2021/12/05 16:33:31;;;;;;;10.88;3.63;;;5.90;99.90;;;;;;5156960;27;20444;-87
2021/12/05 16:35:59;;;;;;;14.32;3.00;;;5.90;99.90;;;;;;5156896;27;20054;-87
2021/12/05 16:38:32;;;;;;;15.68;6.18;;;5.90;99.90;;;;;;5156729;27;20047;-86
2021/12/05 16:41:13;;;;;;;17.40;6.65;;;6.00;99.90;;;;;;5156899;27;20043;-86
2021/12/05 16:43:57;;;;;;;13.88;3.80;;;6.00;99.90;;;;;;5157326;27;20050;-86
2021/12/05 16:46:28;;;;;;;15.15;6.28;;;6.00;99.90;;;;;;5157405;27;20049;-86
2021/12/05 16:48:58;;;;;;;16.90;5.03;;;6.00;99.90;;;;;;5156795;27;20039;-87
2021/12/05 16:51:30;;;;;;;20.23;5.95;;;5.90;99.90;;;;;;5156814;27;20051;-86
2021/12/05 16:54:03;;;;;;;24.42;10.88;;;5.90;99.90;;;;;;5157332;27;20046;-86
2021/12/05 16:56:45;;;;;;;9.63;3.47;;;5.90;99.90;;;;;;5156985;27;20091;-87
2021/12/05 16:59:16;;;;;;;15.27;3.13;;;5.90;99.90;;;;;;5157161;27;20413;-87
2021/12/05 17:01:44;;;;;;;12.23;4.30;;;6.10;99.90;;;;;;5156520;27;20072;-87
2021/12/05 17:04:11;;;;;;;12.43;3.20;;;5.90;99.90;;;;;;5156779;27;20046;-87
2021/12/05 17:06:53;;;;;;;16.55;3.78;;;5.90;99.90;;;;;;5156350;27;20480;-87
2021/12/05 17:09:22;;;;;;;17.48;6.53;;;5.80;99.90;;;;;;5156853;27;20107;-88
2021/12/05 17:11:49;;;;;;;18.27;8.57;;;5.80;99.90;;;;;;5156576;27;20466;-88
2021/12/05 17:14:26;;;;;;;21.48;6.38;;;5.80;99.90;;;;;;5157355;27;20434;-88
2021/12/05 17:16:55;;;;;;;20.88;5.18;;;5.80;99.90;;;;;;5155956;27;20047;-88
2021/12/05 17:19:29;;;;;;;25.88;9.23;;;5.80;99.90;;;;;;5155611;27;20404;-87
2021/12/05 17:21:56;;;;;;;28.30;10.07;;;5.70;99.90;;;;;;5156067;27;20074;-87
2021/12/05 17:24:33;;;;;;;20.05;7.72;;;5.70;99.90;;;;;;5154902;27;20496;-87
2021/12/05 17:27:02;;;;;;;20.75;6.63;;;5.70;99.90;;;;;;5156505;27;20043;-87
2021/12/05 17:29:34;;;;;;;20.85;5.85;;;5.70;99.90;;;;;;5155874;27;20046;-88
2021/12/05 17:32:07;;;;;;;17.50;7.35;;;5.70;99.90;;;;;;5156390;27;20046;-87
2021/12/05 17:34:36;;;;;;;18.17;5.68;;;5.70;99.90;;;;;;5155845;27;20059;-87
2021/12/05 17:37:06;;;;;;;23.23;10.13;;;5.70;99.90;;;;;;5152501;27;20103;-87